Terminal Aerodrome Forecast
Issued by NWS Chicago, IL

Home | Current Version | Previous Version | Graphics & Text | Print | Product List | Glossary On
Versions: 1 2 3 4 5 6 7 8 9 10 11 12 13 14 15 16 17 18 19 20 21 22 23 24 25 26 27 28 29 30 31
000
FTUS43 KLOT 310259 AAB
TAFRFD
TAF AMD
KRFD 310259Z 3103/3124 03017G26KT P6SM SCT015 BKN040
     FM311300 05015G24KT P6SM SCT020 BKN250
     FM312300 06011G17KT P6SM SCT250=

USA.gov is the U.S. government's official web portal to all federal, state and local government web resources and services.